createdAt,value
2022-08-28T00:00:43.746Z,0.00
2022-08-28T00:01:43.727Z,0.00
2022-08-28T00:02:43.823Z,0.00
2022-08-28T00:03:43.689Z,0.00
2022-08-28T00:04:43.779Z,0.00
2022-08-28T00:05:43.682Z,0.00
2022-08-28T00:06:43.668Z,0.00
2022-08-28T00:07:47.666Z,0.00
2022-08-28T00:08:43.639Z,0.00
2022-08-28T00:09:53.782Z,0.00
2022-08-28T00:10:43.632Z,0.00
2022-08-28T00:11:53.653Z,0.00
2022-08-28T00:12:43.654Z,0.00
2022-08-28T00:13:43.646Z,0.00
2022-08-28T00:14:43.587Z,0.00
2022-08-28T00:15:43.599Z,0.00
2022-08-28T00:16:43.589Z,0.00
2022-08-28T00:17:43.577Z,0.00
2022-08-28T00:18:43.537Z,0.00
2022-08-28T00:19:43.522Z,0.00
2022-08-28T00:20:43.529Z,0.00
2022-08-28T00:21:43.565Z,0.00
2022-08-28T00:22:43.578Z,0.00
2022-08-28T00:23:43.527Z,0.00
2022-08-28T00:24:43.502Z,0.00
2022-08-28T00:25:43.458Z,0.00
2022-08-28T00:26:43.487Z,0.00
2022-08-28T00:27:43.431Z,0.00
2022-08-28T00:28:43.462Z,0.00
2022-08-28T00:29:43.464Z,0.00
2022-08-28T00:30:43.429Z,0.00
2022-08-28T00:31:43.536Z,0.00
2022-08-28T00:32:43.397Z,0.00
2022-08-28T00:33:43.418Z,0.00
2022-08-28T00:34:43.368Z,0.00
2022-08-28T00:35:43.406Z,0.00
2022-08-28T00:36:43.385Z,0.00
2022-08-28T00:37:43.372Z,0.00
2022-08-28T00:38:43.312Z,0.00
2022-08-28T00:39:43.304Z,0.00
2022-08-28T00:40:43.386Z,0.00
2022-08-28T00:41:43.301Z,0.00
2022-08-28T00:42:43.292Z,0.00
2022-08-28T00:43:43.298Z,0.00
2022-08-28T00:44:43.274Z,0.00
2022-08-28T00:45:43.241Z,0.00
2022-08-28T00:46:43.328Z,0.00
2022-08-28T00:47:43.525Z,0.00
2022-08-28T00:48:43.259Z,0.00
2022-08-28T00:49:43.220Z,0.00
2022-08-28T00:50:43.211Z,0.00
2022-08-28T00:51:43.223Z,0.00
2022-08-28T00:52:43.209Z,0.00
2022-08-28T00:53:43.159Z,0.00
2022-08-28T00:54:45.708Z,0.00
2022-08-28T00:55:44.135Z,0.00
2022-08-28T00:56:43.133Z,0.00
2022-08-28T00:57:43.124Z,0.00
2022-08-28T00:58:43.125Z,0.00
2022-08-28T00:59:43.126Z,0.00
2022-08-28T01:00:43.128Z,0.00
2022-08-28T01:01:43.129Z,0.00
2022-08-28T01:02:43.150Z,0.00
2022-08-28T01:03:43.065Z,0.00
2022-08-28T01:04:43.074Z,0.00
2022-08-28T01:05:43.030Z,0.00
2022-08-28T01:09:02.168Z,0.00
2022-08-28T01:10:02.159Z,0.00
2022-08-28T01:11:02.170Z,0.00
2022-08-28T01:12:02.141Z,0.00
2022-08-28T01:13:02.128Z,0.00
2022-08-28T01:14:03.029Z,0.00
2022-08-28T01:15:02.098Z,0.00
2022-08-28T01:16:02.169Z,0.00
2022-08-28T01:17:02.105Z,0.00
2022-08-28T01:18:07.402Z,0.00
2022-08-28T01:19:03.062Z,0.00
2022-08-28T01:20:02.050Z,0.00
2022-08-28T01:21:02.043Z,0.00
2022-08-28T01:22:02.032Z,0.00
2022-08-28T01:23:02.008Z,0.00
2022-08-28T01:24:02.091Z,0.00
2022-08-28T01:25:02.001Z,0.00
2022-08-28T01:26:01.981Z,0.00
2022-08-28T01:27:02.975Z,0.00
2022-08-28T01:28:01.953Z,0.00
2022-08-28T01:29:01.940Z,0.00
2022-08-28T01:30:01.931Z,0.00
2022-08-28T01:31:01.959Z,0.00
2022-08-28T01:32:01.924Z,0.00
2022-08-28T01:33:01.910Z,0.00
2022-08-28T01:34:01.935Z,0.00
2022-08-28T01:35:01.923Z,0.00
2022-08-28T01:36:01.889Z,0.00
2022-08-28T01:37:03.373Z,0.00
2022-08-28T01:38:01.850Z,0.00
2022-08-28T01:39:01.846Z,0.00
2022-08-28T01:40:01.915Z,0.00
2022-08-28T01:41:01.818Z,0.00
2022-08-28T01:42:01.799Z,0.00
2022-08-28T01:43:01.826Z,0.00
2022-08-28T01:44:01.776Z,0.00
2022-08-28T01:45:02.942Z,0.00
2022-08-28T01:46:01.835Z,0.00
2022-08-28T01:47:01.751Z,0.00
2022-08-28T01:48:01.736Z,0.00
2022-08-28T01:49:02.140Z,0.00
2022-08-28T01:50:01.718Z,0.00
2022-08-28T01:51:01.744Z,0.00
2022-08-28T01:52:01.721Z,0.00
2022-08-28T01:53:01.695Z,0.00
2022-08-28T01:54:01.672Z,0.00
2022-08-28T01:55:01.674Z,0.00
2022-08-28T01:56:01.704Z,0.00
2022-08-28T01:57:01.645Z,0.00
2022-08-28T01:58:01.647Z,0.00
2022-08-28T01:59:01.641Z,0.00
2022-08-28T02:00:01.629Z,0.00
2022-08-28T02:01:01.618Z,0.00
2022-08-28T02:02:01.651Z,0.00
2022-08-28T02:03:01.582Z,0.00
2022-08-28T02:04:01.625Z,0.00
2022-08-28T02:05:01.536Z,0.00
2022-08-28T02:06:01.562Z,0.00
2022-08-28T02:07:01.518Z,0.00
2022-08-28T02:08:01.544Z,0.00
2022-08-28T02:09:01.509Z,0.00
2022-08-28T02:10:01.505Z,0.00
2022-08-28T02:11:01.456Z,0.00
2022-08-28T02:12:01.511Z,0.00
2022-08-28T02:17:22.565Z,0.00
2022-08-28T02:18:16.620Z,0.00
2022-08-28T02:19:16.601Z,0.00
2022-08-28T02:25:06.782Z,0.00
2022-08-28T02:26:16.776Z,0.00
2022-08-28T02:27:06.773Z,0.00
2022-08-28T02:28:06.702Z,0.00
2022-08-28T02:29:06.750Z,0.00
2022-08-28T02:30:06.742Z,0.00
2022-08-28T02:31:06.799Z,0.00
2022-08-28T02:32:06.705Z,0.00
2022-08-28T02:33:06.656Z,0.00
2022-08-28T02:34:06.663Z,0.00
2022-08-28T02:35:06.667Z,0.00
2022-08-28T02:36:07.625Z,0.00
2022-08-28T02:37:06.615Z,0.00
2022-08-28T02:38:06.659Z,0.00
2022-08-28T02:39:06.617Z,0.00
2022-08-28T02:40:06.646Z,0.00
2022-08-28T02:41:06.602Z,0.00
2022-08-28T02:42:06.559Z,0.00
2022-08-28T02:43:06.585Z,0.00
2022-08-28T02:44:06.556Z,0.00
2022-08-28T02:45:06.588Z,0.00
2022-08-28T02:46:06.546Z,0.00
2022-08-28T02:47:06.519Z,0.00
2022-08-28T02:48:16.901Z,0.00
2022-08-28T02:49:07.504Z,0.00
2022-08-28T02:50:06.856Z,0.00
2022-08-28T02:51:06.510Z,0.00
2022-08-28T02:52:06.480Z,0.00
2022-08-28T02:53:06.472Z,0.00
2022-08-28T02:54:06.452Z,0.00
2022-08-28T02:55:06.413Z,0.00
2022-08-28T02:56:06.435Z,0.00
2022-08-28T02:57:06.421Z,0.00
2022-08-28T02:58:06.437Z,0.00
2022-08-28T02:59:06.411Z,0.00
2022-08-28T03:00:06.347Z,0.00
2022-08-28T03:01:06.420Z,0.00
2022-08-28T03:02:06.381Z,0.00
2022-08-28T03:03:06.322Z,0.00
2022-08-28T03:04:06.323Z,0.00
2022-08-28T03:05:06.334Z,0.00
2022-08-28T03:06:06.335Z,0.00
2022-08-28T03:07:06.297Z,0.00
2022-08-28T03:08:06.373Z,0.00
2022-08-28T03:09:06.319Z,0.00
2022-08-28T03:10:06.255Z,0.00
2022-08-28T03:11:06.241Z,0.00
2022-08-28T03:12:06.247Z,0.00
2022-08-28T03:13:06.248Z,0.00
2022-08-28T03:14:06.199Z,0.00
2022-08-28T03:15:06.220Z,0.00
2022-08-28T03:16:06.223Z,0.00
2022-08-28T03:17:06.212Z,0.00
2022-08-28T03:18:11.296Z,0.00
2022-08-28T03:19:07.157Z,0.00
2022-08-28T03:20:06.161Z,0.00
2022-08-28T03:21:06.449Z,0.00
2022-08-28T03:22:06.133Z,0.00
2022-08-28T03:23:06.204Z,0.00
2022-08-28T03:24:06.155Z,0.00
2022-08-28T03:25:06.151Z,0.00
2022-08-28T03:26:06.088Z,0.00
2022-08-28T03:27:06.108Z,0.00
2022-08-28T03:28:06.106Z,0.00
2022-08-28T03:29:06.066Z,0.00
2022-08-28T03:30:06.027Z,0.00
2022-08-28T03:31:06.158Z,0.00
2022-08-28T03:32:06.059Z,0.00
2022-08-28T03:33:06.037Z,0.00
2022-08-28T03:34:06.016Z,0.00
2022-08-28T03:35:05.982Z,0.00
2022-08-28T03:36:05.959Z,0.00
2022-08-28T03:37:06.010Z,0.00
2022-08-28T03:38:06.096Z,0.00
2022-08-28T03:39:05.932Z,0.00
2022-08-28T03:40:05.958Z,0.00
2022-08-28T03:41:05.959Z,0.00
2022-08-28T03:42:05.916Z,0.00
2022-08-28T03:43:07.059Z,0.00
2022-08-28T03:44:05.913Z,0.00
2022-08-28T03:45:05.918Z,0.00
2022-08-28T03:46:05.916Z,0.00
2022-08-28T03:47:05.903Z,0.00
2022-08-28T03:48:05.947Z,0.00
2022-08-28T03:49:05.854Z,0.00
2022-08-28T03:50:05.819Z,0.00
2022-08-28T03:51:05.816Z,0.00
2022-08-28T03:52:06.008Z,0.00
2022-08-28T03:53:05.783Z,0.00
2022-08-28T03:54:05.810Z,0.00
2022-08-28T03:55:05.784Z,0.00
2022-08-28T03:56:05.766Z,0.00
2022-08-28T03:57:05.732Z,0.00
2022-08-28T03:58:05.752Z,0.00
2022-08-28T03:59:05.762Z,0.00
2022-08-28T04:00:05.700Z,0.00
2022-08-28T04:01:05.782Z,0.00
2022-08-28T04:02:05.672Z,0.00
2022-08-28T04:03:05.713Z,0.00
2022-08-28T04:04:05.710Z,0.00
2022-08-28T04:05:05.706Z,0.00
2022-08-28T04:06:05.652Z,0.00
2022-08-28T04:07:05.628Z,0.00
2022-08-28T04:08:05.669Z,0.00
2022-08-28T04:09:05.630Z,0.00
2022-08-28T04:10:05.611Z,0.00
2022-08-28T04:11:05.628Z,0.00
2022-08-28T04:12:05.593Z,0.00
2022-08-28T04:13:05.614Z,0.00
2022-08-28T04:14:05.576Z,0.00
2022-08-28T04:15:06.988Z,0.00
2022-08-28T04:16:13.094Z,0.00
2022-08-28T04:17:05.541Z,0.00
2022-08-28T04:18:06.278Z,0.00
2022-08-28T04:19:05.487Z,0.00
2022-08-28T04:20:05.493Z,0.00
2022-08-28T04:21:05.458Z,0.00
2022-08-28T04:22:06.411Z,0.00
2022-08-28T04:23:06.526Z,0.00
2022-08-28T04:24:09.405Z,0.00
2022-08-28T04:25:05.422Z,5.62
2022-08-28T04:26:05.424Z,5.62
2022-08-28T04:27:05.395Z,5.62
2022-08-28T04:28:05.416Z,5.62
2022-08-28T04:29:05.377Z,5.62
2022-08-28T04:30:05.358Z,5.62
2022-08-28T04:31:05.369Z,5.62
2022-08-28T04:32:05.392Z,5.62
2022-08-28T04:33:05.338Z,11.25
2022-08-28T04:34:05.332Z,11.25
2022-08-28T04:35:05.309Z,11.25
2022-08-28T04:36:05.305Z,11.25
2022-08-28T04:37:05.291Z,11.25
2022-08-28T04:38:05.722Z,11.25
2022-08-28T04:39:05.272Z,11.25
2022-08-28T04:40:05.283Z,11.25
2022-08-28T04:41:05.255Z,11.25
2022-08-28T04:42:05.237Z,11.25
2022-08-28T04:43:05.218Z,11.25
2022-08-28T04:44:05.219Z,11.25
2022-08-28T04:45:05.295Z,11.25
2022-08-28T04:46:05.225Z,11.25
2022-08-28T04:47:06.261Z,16.88
2022-08-28T04:48:05.430Z,16.88
2022-08-28T04:49:06.212Z,16.88
2022-08-28T04:50:05.156Z,16.88
2022-08-28T04:51:05.148Z,16.88
2022-08-28T04:52:05.137Z,22.50
2022-08-28T04:53:05.128Z,22.50
2022-08-28T04:54:06.591Z,22.50
2022-08-28T04:55:05.101Z,28.12
2022-08-28T04:56:05.072Z,28.12
2022-08-28T04:57:06.595Z,28.12
2022-08-28T04:58:05.072Z,33.75
2022-08-28T04:59:05.081Z,33.75
2022-08-28T05:00:05.054Z,33.75
2022-08-28T05:01:05.106Z,33.75
2022-08-28T05:02:05.077Z,33.75
2022-08-28T05:03:04.999Z,33.75
2022-08-28T05:04:05.005Z,39.38
2022-08-28T05:05:05.007Z,39.38
2022-08-28T05:06:04.980Z,39.38
2022-08-28T05:07:04.956Z,39.38
2022-08-28T05:08:04.955Z,39.38
2022-08-28T05:09:04.936Z,45.00
2022-08-28T05:10:04.937Z,45.00
2022-08-28T05:11:04.918Z,45.00
2022-08-28T05:12:04.919Z,45.00
2022-08-28T05:13:04.885Z,45.00
2022-08-28T05:14:04.984Z,45.00
2022-08-28T05:15:04.863Z,50.62
2022-08-28T05:16:04.953Z,50.62
2022-08-28T05:17:04.844Z,50.62
2022-08-28T05:18:04.958Z,56.25
2022-08-28T05:19:04.817Z,56.25
2022-08-28T05:20:04.869Z,56.25
2022-08-28T05:21:04.799Z,61.88
2022-08-28T05:22:04.796Z,61.88
2022-08-28T05:23:04.787Z,67.50
2022-08-28T05:24:04.775Z,67.50
2022-08-28T05:25:05.015Z,73.12
2022-08-28T05:26:04.750Z,73.12
2022-08-28T05:27:04.771Z,73.12
2022-08-28T05:28:04.737Z,73.12
2022-08-28T05:29:04.718Z,73.12
2022-08-28T05:30:04.719Z,73.12
2022-08-28T05:31:04.706Z,73.12
2022-08-28T05:32:04.707Z,73.12
2022-08-28T05:33:04.667Z,73.12
2022-08-28T05:34:04.664Z,73.12
2022-08-28T05:35:04.660Z,78.75
2022-08-28T05:36:04.661Z,78.75
2022-08-28T05:37:04.636Z,78.75
2022-08-28T05:38:04.623Z,78.75
2022-08-28T05:39:04.644Z,78.75
2022-08-28T05:40:04.700Z,78.75
2022-08-28T05:41:04.602Z,78.75
2022-08-28T05:42:04.596Z,84.38
2022-08-28T05:43:04.608Z,90.00
2022-08-28T05:44:04.565Z,95.62
2022-08-28T05:45:04.565Z,106.88
2022-08-28T05:46:04.575Z,106.88
2022-08-28T05:47:04.523Z,112.50
2022-08-28T05:48:04.529Z,118.12
2022-08-28T05:49:09.092Z,123.75
2022-08-28T05:50:05.489Z,129.38
2022-08-28T05:51:04.477Z,135.00
2022-08-28T05:52:04.463Z,140.62
2022-08-28T05:53:04.460Z,140.62
2022-08-28T05:54:04.441Z,146.25
2022-08-28T05:55:04.469Z,151.88
2022-08-28T05:56:05.123Z,151.88
2022-08-28T05:57:04.411Z,157.50
2022-08-28T05:58:04.415Z,163.12
2022-08-28T05:59:04.407Z,168.75
2022-08-28T06:00:04.374Z,168.75
2022-08-28T06:01:04.373Z,168.75
2022-08-28T06:02:04.668Z,180.00
2022-08-28T06:03:04.346Z,174.38
2022-08-28T06:04:04.409Z,180.00
2022-08-28T06:05:04.323Z,180.00
2022-08-28T06:06:04.314Z,185.62
2022-08-28T06:07:04.310Z,202.50
2022-08-28T06:08:04.292Z,196.88
2022-08-28T06:09:04.297Z,196.88
2022-08-28T06:10:04.278Z,196.88
2022-08-28T06:11:04.295Z,202.50
2022-08-28T06:12:04.261Z,208.12
2022-08-28T06:13:04.231Z,208.12
2022-08-28T06:14:04.245Z,219.38
2022-08-28T06:15:04.213Z,213.75
2022-08-28T06:16:04.252Z,213.75
2022-08-28T06:17:04.196Z,225.00
2022-08-28T06:18:04.177Z,213.75
2022-08-28T06:19:04.492Z,225.00
2022-08-28T06:20:04.160Z,258.75
2022-08-28T06:21:04.140Z,230.62
2022-08-28T06:22:04.405Z,230.62
2022-08-28T06:23:04.132Z,225.00
2022-08-28T06:24:04.119Z,230.62
2022-08-28T06:25:07.794Z,230.62
2022-08-28T06:26:04.085Z,230.62
2022-08-28T06:27:04.127Z,230.62
2022-08-28T06:28:04.078Z,230.62
2022-08-28T06:29:04.075Z,236.25
2022-08-28T06:30:04.086Z,241.88
2022-08-28T06:31:24.044Z,241.88
2022-08-28T06:32:05.122Z,241.88
2022-08-28T06:33:04.003Z,247.50
2022-08-28T06:34:04.015Z,247.50
2022-08-28T06:35:03.996Z,253.12
2022-08-28T06:36:03.982Z,253.12
2022-08-28T06:37:03.974Z,258.75
2022-08-28T06:38:03.964Z,258.75
2022-08-28T06:39:03.956Z,264.38
2022-08-28T06:40:03.982Z,270.00
2022-08-28T06:41:03.963Z,275.62
2022-08-28T06:42:03.919Z,275.62
2022-08-28T06:43:03.936Z,281.25
2022-08-28T06:44:03.895Z,281.25
2022-08-28T06:45:03.917Z,281.25
2022-08-28T06:46:03.953Z,286.88
2022-08-28T06:47:03.854Z,286.88
2022-08-28T06:48:03.875Z,292.50
2022-08-28T06:49:03.926Z,320.62
2022-08-28T06:50:03.818Z,298.12
2022-08-28T06:51:03.819Z,360.00
2022-08-28T06:52:03.814Z,399.38
2022-08-28T06:53:03.825Z,376.88
2022-08-28T06:54:03.782Z,331.88
2022-08-28T06:55:03.769Z,320.62
2022-08-28T06:56:03.789Z,331.88
2022-08-28T06:57:03.797Z,337.50
2022-08-28T06:58:03.888Z,326.25
2022-08-28T06:59:03.738Z,326.25
2022-08-28T07:00:03.720Z,331.88
2022-08-28T07:01:03.866Z,326.25
2022-08-28T07:02:03.834Z,326.25
2022-08-28T07:03:03.745Z,326.25
2022-08-28T07:04:03.699Z,326.25
2022-08-28T07:05:03.680Z,331.88
2022-08-28T07:06:03.665Z,331.88
2022-08-28T07:07:03.668Z,337.50
2022-08-28T07:08:03.808Z,343.12
2022-08-28T07:09:03.643Z,337.50
2022-08-28T07:10:03.662Z,337.50
2022-08-28T07:11:03.647Z,337.50
2022-08-28T07:12:03.608Z,348.75
2022-08-28T07:13:03.597Z,348.75
2022-08-28T07:14:03.574Z,354.38
2022-08-28T07:15:03.555Z,365.62
2022-08-28T07:16:03.645Z,365.62
2022-08-28T07:17:03.795Z,365.62
2022-08-28T07:18:03.534Z,376.88
2022-08-28T07:19:03.525Z,376.88
2022-08-28T07:20:03.536Z,371.25
2022-08-28T07:21:03.502Z,371.25
2022-08-28T07:22:03.473Z,371.25
2022-08-28T07:23:03.545Z,382.50
2022-08-28T07:24:03.455Z,371.25
2022-08-28T07:25:03.441Z,399.38
2022-08-28T07:26:03.438Z,354.38
2022-08-28T07:27:03.404Z,382.50
2022-08-28T07:28:03.410Z,360.00
2022-08-28T07:29:10.231Z,354.38
2022-08-28T07:30:04.389Z,410.62
2022-08-28T07:31:03.396Z,393.75
2022-08-28T07:32:03.369Z,444.38
2022-08-28T07:33:03.356Z,433.12
2022-08-28T07:34:03.370Z,410.62
2022-08-28T07:35:03.338Z,382.50
2022-08-28T07:36:03.386Z,382.50
2022-08-28T07:37:03.335Z,399.38
2022-08-28T07:38:03.316Z,410.62
2022-08-28T07:39:03.317Z,410.62
2022-08-28T07:40:03.339Z,427.50
2022-08-28T07:41:03.269Z,416.25
2022-08-28T07:42:03.270Z,427.50
2022-08-28T07:43:03.242Z,421.88
2022-08-28T07:44:03.293Z,421.88
2022-08-28T07:45:03.253Z,427.50
2022-08-28T07:46:03.274Z,427.50
2022-08-28T07:47:03.211Z,455.62
2022-08-28T07:48:03.208Z,455.62
2022-08-28T07:49:03.186Z,461.25
2022-08-28T07:50:03.174Z,455.62
2022-08-28T07:51:03.175Z,421.88
2022-08-28T07:52:03.153Z,421.88
2022-08-28T07:53:03.182Z,416.25
2022-08-28T07:54:03.204Z,416.25
2022-08-28T07:55:03.113Z,438.75
2022-08-28T07:56:03.115Z,416.25
2022-08-28T07:57:03.171Z,416.25
2022-08-28T07:58:03.083Z,421.88
2022-08-28T07:59:03.103Z,466.88
2022-08-28T08:00:03.245Z,421.88
2022-08-28T08:01:03.121Z,427.50
2022-08-28T08:02:03.046Z,450.00
2022-08-28T08:03:03.114Z,466.88
2022-08-28T08:04:03.009Z,466.88
2022-08-28T08:05:03.030Z,472.50
2022-08-28T08:06:03.087Z,483.75
2022-08-28T08:07:02.982Z,489.38
2022-08-28T08:08:02.979Z,489.38
2022-08-28T08:09:02.970Z,483.75
2022-08-28T08:10:02.973Z,483.75
2022-08-28T08:11:02.936Z,483.75
2022-08-28T08:12:02.943Z,489.38
2022-08-28T08:13:02.915Z,506.25
2022-08-28T08:14:02.900Z,511.88
2022-08-28T08:15:02.897Z,517.50
2022-08-28T08:16:02.951Z,506.25
2022-08-28T08:17:02.903Z,506.25
2022-08-28T08:18:02.874Z,511.88
2022-08-28T08:19:02.936Z,495.00
2022-08-28T08:20:02.858Z,489.38
2022-08-28T08:21:02.860Z,489.38
2022-08-28T08:22:02.859Z,489.38
2022-08-28T08:23:02.810Z,489.38
2022-08-28T08:24:02.796Z,483.75
2022-08-28T08:25:02.818Z,483.75
2022-08-28T08:26:02.774Z,483.75
2022-08-28T08:27:02.845Z,489.38
2022-08-28T08:28:02.811Z,438.75
2022-08-28T08:29:02.736Z,517.50
2022-08-28T08:30:02.735Z,517.50
2022-08-28T08:31:02.793Z,517.50
2022-08-28T08:32:02.743Z,517.50
2022-08-28T08:33:02.705Z,511.88
2022-08-28T08:34:02.834Z,511.88
2022-08-28T08:35:02.698Z,517.50
2022-08-28T08:36:02.663Z,528.75
2022-08-28T08:37:02.746Z,528.75
2022-08-28T08:38:03.033Z,523.12
2022-08-28T08:39:03.833Z,523.12
2022-08-28T08:40:03.540Z,528.75
2022-08-28T08:41:02.609Z,528.75
2022-08-28T08:42:02.647Z,534.38
2022-08-28T08:43:02.608Z,540.00
2022-08-28T08:44:02.574Z,545.62
2022-08-28T08:45:02.635Z,545.62
2022-08-28T08:46:02.634Z,556.88
2022-08-28T08:47:02.578Z,568.12
2022-08-28T08:48:02.552Z,573.75
2022-08-28T08:49:02.549Z,579.38
2022-08-28T08:50:02.511Z,590.62
2022-08-28T08:51:02.545Z,607.50
2022-08-28T08:52:02.522Z,624.38
2022-08-28T08:53:02.493Z,635.62
2022-08-28T08:54:02.464Z,652.50
2022-08-28T08:55:02.460Z,680.62
2022-08-28T08:56:02.491Z,697.50
2022-08-28T08:57:02.484Z,556.88
2022-08-28T08:58:02.444Z,534.38
2022-08-28T08:59:02.415Z,523.12
2022-08-28T09:00:02.395Z,511.88
2022-08-28T09:01:02.435Z,511.88
2022-08-28T09:02:02.601Z,523.12
2022-08-28T09:03:02.439Z,686.25
2022-08-28T09:04:02.399Z,691.88
2022-08-28T09:05:02.356Z,691.88
2022-08-28T09:06:02.363Z,691.88
2022-08-28T09:07:02.471Z,708.75
2022-08-28T09:08:02.345Z,675.00
2022-08-28T09:09:02.340Z,708.75
2022-08-28T09:10:02.301Z,551.25
2022-08-28T09:11:02.287Z,528.75
2022-08-28T09:12:02.281Z,517.50
2022-08-28T09:13:02.310Z,517.50
2022-08-28T09:14:02.257Z,495.00
2022-08-28T09:15:02.257Z,489.38
2022-08-28T09:16:02.291Z,478.12
2022-08-28T09:17:02.219Z,472.50
2022-08-28T09:18:02.186Z,483.75
2022-08-28T09:19:02.195Z,495.00
2022-08-28T09:20:02.169Z,495.00
2022-08-28T09:21:02.179Z,483.75
2022-08-28T09:22:02.215Z,472.50
2022-08-28T09:23:12.985Z,466.88
2022-08-28T09:24:05.877Z,472.50
2022-08-28T09:25:02.320Z,528.75
2022-08-28T09:26:02.454Z,483.75
2022-08-28T09:27:02.155Z,511.88
2022-08-28T09:28:02.092Z,714.38
2022-08-28T09:29:02.098Z,742.50
2022-08-28T09:30:02.588Z,748.12
2022-08-28T09:31:03.181Z,618.75
2022-08-28T09:32:02.397Z,680.62
2022-08-28T09:33:02.536Z,703.12
2022-08-28T09:34:02.044Z,663.75
2022-08-28T09:35:02.119Z,753.75
2022-08-28T09:36:02.031Z,556.88
2022-08-28T09:37:02.047Z,506.25
2022-08-28T09:38:02.060Z,478.12
2022-08-28T09:39:01.969Z,455.62
2022-08-28T09:40:02.024Z,461.25
2022-08-28T09:41:01.991Z,461.25
2022-08-28T09:42:02.231Z,568.12
2022-08-28T09:43:01.978Z,601.88
2022-08-28T09:44:02.281Z,624.38
2022-08-28T09:45:01.982Z,641.25
2022-08-28T09:46:03.032Z,658.12
2022-08-28T09:47:01.881Z,686.25
2022-08-28T09:48:02.086Z,736.88
2022-08-28T09:49:01.886Z,787.50
2022-08-28T09:50:01.920Z,826.88
2022-08-28T09:51:01.851Z,838.12
2022-08-28T09:52:01.823Z,753.75
2022-08-28T09:53:01.823Z,748.12
2022-08-28T09:54:01.901Z,770.62
2022-08-28T09:55:01.785Z,663.75
2022-08-28T09:56:01.806Z,624.38
2022-08-28T09:57:01.865Z,765.00
2022-08-28T09:58:01.810Z,568.12
2022-08-28T09:59:01.751Z,528.75
2022-08-28T10:00:01.745Z,495.00
2022-08-28T10:01:01.780Z,489.38
2022-08-28T10:02:01.754Z,663.75
2022-08-28T10:03:05.642Z,675.00
2022-08-28T10:04:03.170Z,675.00
2022-08-28T10:05:01.722Z,697.50
2022-08-28T10:06:01.686Z,731.25
2022-08-28T10:07:01.695Z,781.88
2022-08-28T10:08:01.637Z,826.88
2022-08-28T10:09:01.647Z,855.00
2022-08-28T10:10:01.689Z,838.12
2022-08-28T10:11:01.624Z,714.38
2022-08-28T10:12:01.604Z,714.38
2022-08-28T10:13:01.637Z,686.25
2022-08-28T10:14:01.582Z,669.38
2022-08-28T10:15:01.580Z,652.50
2022-08-28T10:16:58.129Z,624.38
2022-08-28T10:17:57.762Z,624.38
2022-08-28T10:18:59.597Z,618.75
2022-08-28T10:19:57.748Z,765.00
2022-08-28T10:20:57.857Z,855.00
2022-08-28T10:21:58.035Z,888.75
2022-08-28T10:22:57.711Z,928.12
2022-08-28T10:23:57.693Z,967.50
2022-08-28T10:24:57.674Z,826.88
2022-08-28T10:25:57.660Z,810.00
2022-08-28T10:26:57.648Z,770.62
2022-08-28T10:27:57.628Z,680.62
2022-08-28T10:28:57.741Z,646.88
2022-08-28T10:30:00.374Z,624.38
2022-08-28T10:30:58.764Z,652.50
2022-08-28T10:31:57.899Z,736.88
2022-08-28T10:32:57.588Z,725.62
2022-08-28T10:33:57.624Z,725.62
2022-08-28T10:34:57.620Z,736.88
2022-08-28T10:35:57.723Z,759.38
2022-08-28T10:36:57.548Z,781.88
2022-08-28T10:37:57.529Z,810.00
2022-08-28T10:38:57.646Z,821.25
2022-08-28T10:39:57.531Z,646.88
2022-08-28T10:40:57.508Z,630.00
2022-08-28T10:41:57.524Z,624.38
2022-08-28T10:42:57.665Z,618.75
2022-08-28T10:43:57.758Z,613.12
2022-08-28T10:44:57.486Z,736.88
2022-08-28T10:45:57.480Z,708.75
2022-08-28T10:46:57.636Z,703.12
2022-08-28T10:47:57.475Z,703.12
2022-08-28T10:48:57.416Z,708.75
2022-08-28T10:49:57.633Z,720.00
2022-08-28T10:50:57.410Z,742.50
2022-08-28T10:51:57.430Z,765.00
2022-08-28T10:52:57.829Z,804.38
2022-08-28T10:53:57.372Z,832.50
2022-08-28T10:54:57.367Z,877.50
2022-08-28T10:55:57.383Z,950.62
2022-08-28T10:56:57.334Z,860.62
2022-08-28T10:57:57.319Z,1057.50
2022-08-28T10:58:57.312Z,1018.12
2022-08-28T10:59:57.303Z,810.00
2022-08-28T11:00:57.495Z,922.50
2022-08-28T11:01:57.456Z,883.12
2022-08-28T11:02:57.525Z,860.62
2022-08-28T11:03:57.469Z,855.00
2022-08-28T11:04:58.674Z,838.12
2022-08-28T11:05:57.527Z,832.50
2022-08-28T11:06:57.456Z,849.38
2022-08-28T11:07:57.370Z,838.12
2022-08-28T11:08:57.208Z,838.12
2022-08-28T11:09:57.194Z,894.38
2022-08-28T11:10:57.174Z,1018.12
2022-08-28T11:12:01.612Z,1023.75
2022-08-28T11:12:57.360Z,1608.75
2022-08-28T11:13:57.416Z,2570.62
2022-08-28T11:14:57.134Z,1676.25
2022-08-28T11:15:57.125Z,1035.00
2022-08-28T11:16:57.162Z,815.62
2022-08-28T11:17:57.143Z,793.12
2022-08-28T11:18:57.512Z,793.12
2022-08-28T11:19:57.090Z,810.00
2022-08-28T11:20:57.329Z,860.62
2022-08-28T11:21:57.074Z,1102.50
2022-08-28T11:22:57.057Z,883.12
2022-08-28T11:23:57.065Z,2868.75
2022-08-28T11:25:02.449Z,2981.25
2022-08-28T11:25:58.026Z,3043.12
2022-08-28T11:26:57.022Z,3020.62
2022-08-28T11:27:57.377Z,2925.00
2022-08-28T11:28:57.080Z,2919.38
2022-08-28T11:29:57.006Z,2958.75
2022-08-28T11:30:57.454Z,2981.25
2022-08-28T11:31:57.099Z,2767.50
2022-08-28T11:32:56.955Z,2846.25
2022-08-28T11:33:56.955Z,2908.12
2022-08-28T11:34:56.968Z,2925.00
2022-08-28T11:35:56.913Z,2913.75
2022-08-28T11:36:57.293Z,3093.75
2022-08-28T11:37:57.056Z,3245.62
2022-08-28T11:38:56.892Z,3183.75
2022-08-28T11:39:56.900Z,3234.38
2022-08-28T11:40:57.015Z,3335.62
2022-08-28T11:41:56.850Z,2272.50
2022-08-28T11:42:56.891Z,1102.50
2022-08-28T11:43:56.843Z,1006.88
2022-08-28T11:44:56.842Z,3285.00
2022-08-28T11:45:57.065Z,2283.75
2022-08-28T11:46:57.086Z,3313.12
2022-08-28T11:47:56.969Z,3217.50
2022-08-28T11:48:57.097Z,3217.50
2022-08-28T11:49:57.807Z,3121.88
2022-08-28T11:50:56.765Z,3133.12
2022-08-28T11:51:56.821Z,3172.50
2022-08-28T11:52:56.783Z,2126.25
2022-08-28T11:53:56.828Z,3166.88
2022-08-28T11:54:56.787Z,3093.75
2022-08-28T11:55:56.712Z,3082.50
2022-08-28T11:56:56.715Z,3161.25
2022-08-28T11:57:56.798Z,3273.75
2022-08-28T11:58:56.678Z,3206.25
2022-08-28T11:59:57.003Z,3155.62
2022-08-28T12:00:56.706Z,3150.00
2022-08-28T12:01:56.913Z,3155.62
2022-08-28T12:02:56.822Z,3178.12
2022-08-28T12:03:56.675Z,3172.50
2022-08-28T12:04:57.124Z,3048.75
2022-08-28T12:05:56.682Z,3082.50
2022-08-28T12:06:56.662Z,3206.25
2022-08-28T12:07:58.599Z,3234.38
2022-08-28T12:08:56.719Z,3144.38
2022-08-28T12:09:56.603Z,3121.88
2022-08-28T12:10:56.598Z,3189.38
2022-08-28T12:11:56.613Z,3285.00
2022-08-28T12:12:56.697Z,3414.38
2022-08-28T12:13:56.566Z,3369.38
2022-08-28T12:14:56.525Z,3262.50
2022-08-28T12:15:56.539Z,3251.25
2022-08-28T12:16:56.613Z,3256.88
2022-08-28T12:17:56.500Z,3290.62
2022-08-28T12:18:56.732Z,3228.75
2022-08-28T12:19:56.473Z,3172.50
2022-08-28T12:20:56.472Z,3341.25
2022-08-28T12:21:56.494Z,3408.75
2022-08-28T12:22:56.514Z,3285.00
2022-08-28T12:23:59.051Z,3223.12
2022-08-28T12:24:56.422Z,3144.38
2022-08-28T12:25:56.407Z,3211.88
2022-08-28T12:26:57.105Z,3200.62
2022-08-28T12:27:56.453Z,3116.25
2022-08-28T12:28:56.377Z,3240.00
2022-08-28T12:29:56.696Z,3223.12
2022-08-28T12:30:56.401Z,3251.25
2022-08-28T12:31:56.332Z,3313.12
2022-08-28T12:32:56.477Z,3251.25
2022-08-28T12:33:56.318Z,3183.75
2022-08-28T12:34:56.741Z,3346.88
2022-08-28T12:35:56.339Z,3436.88
2022-08-28T12:36:56.370Z,3358.12
2022-08-28T12:37:56.392Z,3318.75
2022-08-28T12:38:56.374Z,3341.25
2022-08-28T12:39:56.518Z,3375.00
2022-08-28T12:40:56.249Z,3414.38
2022-08-28T12:41:56.368Z,3369.38
2022-08-28T12:42:56.236Z,3403.12
2022-08-28T12:43:56.239Z,3420.00
2022-08-28T12:44:56.693Z,3386.25
2022-08-28T12:45:56.775Z,3296.25
2022-08-28T12:46:56.204Z,3369.38
2022-08-28T12:47:56.193Z,3403.12
2022-08-28T12:48:56.189Z,3358.12
2022-08-28T12:49:56.167Z,3352.50
2022-08-28T12:50:56.267Z,3459.38
2022-08-28T12:51:56.183Z,3543.75
2022-08-28T12:52:56.279Z,3504.38
2022-08-28T12:53:56.169Z,3358.12
2022-08-28T12:54:56.367Z,3408.75
2022-08-28T12:55:56.110Z,3487.50